Time;durP1;ratioP1;P1;durP2;ratioP2;P2;SDS_P1;SDS_P2;PMS_P1;PMS_P2;Temp;Humidity;BMP_temperature;BMP_pressure;BME280_temperature;BME280_humidity;BME280_pressure;Samples;Min_cycle;Max_cycle;Signal;HPM_P1;HPM_P2
2021/06/23 02:45:17;;;;;;;13.00;7.60;;;24.10;84.30;;;;;;5666603;24;21273;31
2021/06/23 02:47:44;;;;;;;8.30;7.38;;;24.10;84.60;;;;;;4722155;30;20049;-77
2021/06/23 02:50:22;;;;;;;9.38;7.20;;;24.10;84.50;;;;;;4716478;30;20099;-77
2021/06/23 02:53:09;;;;;;;15.05;8.95;;;24.10;84.60;;;;;;4716635;30;20045;-77
2021/06/23 02:55:36;;;;;;;16.42;8.35;;;24.10;84.50;;;;;;4728484;30;20083;-77
2021/06/23 02:58:03;;;;;;;14.30;8.40;;;24.10;85.00;;;;;;4721862;30;20025;-77
2021/06/23 03:00:30;;;;;;;11.80;7.72;;;24.10;84.40;;;;;;4721746;30;20029;-77
2021/06/23 03:02:57;;;;;;;10.23;7.32;;;24.10;84.40;;;;;;4726584;30;20036;-77
2021/06/23 03:05:24;;;;;;;12.18;7.18;;;24.10;84.60;;;;;;4720688;30;20105;-77
2021/06/23 03:07:50;;;;;;;16.10;7.30;;;24.00;84.50;;;;;;4715744;30;20029;-77
2021/06/23 03:10:25;;;;;;;12.13;7.57;;;24.10;84.50;;;;;;4733987;30;20232;-78
2021/06/23 03:12:57;;;;;;;10.00;7.47;;;24.10;84.60;;;;;;4710738;30;20048;-77
2021/06/23 03:15:42;;;;;;;10.20;6.82;;;24.00;84.30;;;;;;4724174;30;20409;-77
2021/06/23 03:18:29;;;;;;;13.73;7.90;;;24.00;84.30;;;;;;4721994;30;20033;-77
2021/06/23 03:20:55;;;;;;;;;;;23.90;84.00;;;;;;4724077;30;20361;-76
2021/06/23 03:23:21;;;;;;;9.50;6.00;;;24.00;83.90;;;;;;4735231;30;19918;-77
2021/06/23 03:25:47;;;;;;;7.38;6.57;;;24.00;83.60;;;;;;4738911;30;20103;-76
2021/06/23 03:28:14;;;;;;;;;;;24.00;83.30;;;;;;4720521;30;20025;-77
2021/06/23 03:30:47;;;;;;;14.30;5.68;;;24.00;83.50;;;;;;4715417;30;19919;-77
2021/06/23 03:33:13;;;;;;;7.05;5.82;;;23.90;83.40;;;;;;4699945;30;20094;-77
2021/06/23 03:35:59;;;;;;;12.53;6.77;;;23.90;83.50;;;;;;4721611;30;20048;-76
2021/06/23 03:38:25;;;;;;;10.25;5.60;;;24.00;83.20;;;;;;4713877;30;20288;-76
2021/06/23 03:40:52;;;;;;;11.02;6.10;;;24.00;83.00;;;;;;4740206;30;20041;-76
2021/06/23 03:43:21;;;;;;;10.98;6.28;;;24.00;82.90;;;;;;4708751;30;20045;-77
2021/06/23 03:45:51;;;;;;;9.90;5.65;;;24.10;82.70;;;;;;4720091;30;20069;-76
2021/06/23 03:48:17;;;;;;;14.50;5.25;;;24.10;82.50;;;;;;4719899;30;20033;-77
2021/06/23 03:50:47;;;;;;;7.95;5.43;;;24.00;82.20;;;;;;4714321;30;20065;-76
2021/06/23 03:53:15;;;;;;;7.93;5.30;;;24.10;82.20;;;;;;4734672;30;20032;-77
2021/06/23 03:55:41;;;;;;;11.80;5.70;;;24.10;81.60;;;;;;4708749;30;20058;-77
2021/06/23 03:58:07;;;;;;;7.83;4.90;;;24.10;81.30;;;;;;4728801;30;20080;-77
2021/06/23 04:00:34;;;;;;;6.60;5.05;;;24.10;81.20;;;;;;4739744;30;20096;-77
2021/06/23 04:03:23;;;;;;;9.48;5.03;;;24.10;81.60;;;;;;4719291;30;20325;-77
2021/06/23 04:06:24;;;;;;;9.35;5.20;;;24.10;81.30;;;;;;4715177;30;20040;-77
2021/06/23 04:08:50;;;;;;;8.32;5.32;;;24.10;81.00;;;;;;4721077;30;20040;-77
2021/06/23 04:11:16;;;;;;;8.65;5.85;;;24.20;81.00;;;;;;4739773;30;20108;-77
2021/06/23 04:13:42;;;;;;;8.27;5.40;;;24.20;80.90;;;;;;4710232;30;20085;-77
2021/06/23 04:16:08;;;;;;;9.68;5.60;;;24.30;80.80;;;;;;4715315;30;20030;-76
2021/06/23 04:18:34;;;;;;;13.55;5.47;;;24.40;80.60;;;;;;4698405;30;20063;-77
2021/06/23 04:21:00;;;;;;;14.43;6.22;;;24.40;80.00;;;;;;4728284;30;20064;-77
2021/06/23 04:23:26;;;;;;;8.10;5.72;;;24.40;79.70;;;;;;4717139;30;20029;-77
2021/06/23 04:25:52;;;;;;;11.75;4.93;;;24.40;80.20;;;;;;4728976;30;20033;-77
2021/06/23 04:28:18;;;;;;;10.27;6.00;;;24.50;80.10;;;;;;4712903;30;20034;-77
2021/06/23 04:30:45;;;;;;;10.95;6.10;;;24.50;79.60;;;;;;4725172;30;20025;-77
2021/06/23 04:33:11;;;;;;;7.95;5.50;;;24.50;79.70;;;;;;4719420;30;20037;-77
2021/06/23 04:35:40;;;;;;;9.63;6.70;;;24.50;79.50;;;;;;4717703;30;20221;-77
2021/06/23 04:38:06;;;;;;;10.47;6.13;;;24.50;80.00;;;;;;4717658;30;20037;-77
2021/06/23 04:40:33;;;;;;;13.38;5.85;;;24.50;80.00;;;;;;4714022;30;20098;-76
2021/06/23 04:42:59;;;;;;;11.30;5.75;;;24.60;80.10;;;;;;4719260;30;20422;-77
2021/06/23 04:45:25;;;;;;;11.20;5.67;;;24.60;79.80;;;;;;4731942;30;20021;-77
2021/06/23 04:48:00;;;;;;;26.50;7.93;;;24.50;81.30;;;;;;4731021;30;20037;-77
2021/06/23 04:50:29;;;;;;;9.75;5.80;;;24.40;82.60;;;;;;4735527;30;20057;-77
2021/06/23 04:53:02;;;;;;;13.13;5.13;;;24.20;83.90;;;;;;4720477;30;20033;-78
2021/06/23 04:55:29;;;;;;;9.77;6.32;;;24.20;83.70;;;;;;4731504;30;20068;-76
2021/06/23 04:58:06;;;;;;;9.75;5.90;;;24.20;83.00;;;;;;4714056;30;20218;-75
2021/06/23 05:00:32;;;;;;;11.20;6.22;;;24.20;83.80;;;;;;4718976;30;20047;-77
2021/06/23 05:02:58;;;;;;;11.88;6.03;;;24.30;83.10;;;;;;4738173;30;20025;-77
2021/06/23 05:05:26;;;;;;;13.00;6.28;;;24.40;83.40;;;;;;4737476;30;20100;-76
2021/06/23 05:07:53;;;;;;;12.50;5.57;;;24.40;83.10;;;;;;4719703;30;20082;-76
2021/06/23 05:10:21;;;;;;;10.50;6.00;;;24.50;82.90;;;;;;4738077;30;20653;-76
2021/06/23 05:12:47;;;;;;;12.73;6.25;;;24.50;83.10;;;;;;4717650;30;20045;-77
2021/06/23 05:15:13;;;;;;;13.32;6.78;;;24.50;83.10;;;;;;4736568;30;20083;-77
2021/06/23 05:17:39;;;;;;;12.80;5.93;;;24.50;82.90;;;;;;4723847;30;20044;-76
2021/06/23 05:20:05;;;;;;;8.43;5.85;;;24.60;82.80;;;;;;4739800;30;20056;-76
2021/06/23 05:22:31;;;;;;;22.88;6.47;;;24.80;82.70;;;;;;4722479;30;20029;-76
2021/06/23 05:24:58;;;;;;;12.25;6.50;;;24.80;81.60;;;;;;4737233;30;20029;-76
2021/06/23 05:27:24;;;;;;;8.57;5.82;;;24.90;81.60;;;;;;4718633;30;20021;-76
2021/06/23 05:29:50;;;;;;;11.45;6.45;;;25.00;81.30;;;;;;4735863;30;20041;-76
2021/06/23 05:32:16;;;;;;;13.00;6.53;;;25.00;80.90;;;;;;4722203;30;20083;-76
2021/06/23 05:34:41;;;;;;;14.85;6.65;;;25.10;81.00;;;;;;4736658;30;20350;-77
2021/06/23 05:37:07;;;;;;;10.50;6.03;;;25.10;81.10;;;;;;4721151;30;20265;-78
2021/06/23 05:39:33;;;;;;;13.48;6.47;;;25.10;80.60;;;;;;4718761;30;20032;-77
2021/06/23 05:41:59;;;;;;;10.85;6.55;;;25.20;80.40;;;;;;4723511;30;20025;-77
2021/06/23 05:44:25;;;;;;;13.13;5.95;;;25.20;80.60;;;;;;4735186;30;20083;-79
2021/06/23 05:46:51;;;;;;;12.07;5.97;;;25.30;80.70;;;;;;4725561;30;20229;-77
2021/06/23 05:49:17;;;;;;;12.15;6.47;;;25.30;80.00;;;;;;4719079;30;20066;-77
2021/06/23 05:51:43;;;;;;;12.50;6.20;;;25.30;79.70;;;;;;4733191;30;20283;-77
2021/06/23 05:54:08;;;;;;;15.38;6.85;;;25.40;80.10;;;;;;4753320;30;20057;-77
2021/06/23 05:56:34;;;;;;;13.50;6.63;;;25.40;79.30;;;;;;4743106;30;20048;-78
2021/06/23 05:59:00;;;;;;;13.20;7.00;;;25.40;79.60;;;;;;4724920;30;20043;-77
2021/06/23 06:01:26;;;;;;;15.65;6.30;;;25.40;79.50;;;;;;4728979;30;20093;-77
2021/06/23 06:03:52;;;;;;;8.68;5.63;;;25.40;79.40;;;;;;4740978;30;20064;-77
2021/06/23 06:06:17;;;;;;;10.77;6.30;;;25.40;79.50;;;;;;4729369;30;20049;-77
2021/06/23 06:08:43;;;;;;;12.13;6.20;;;25.40;79.20;;;;;;4743944;30;20032;-74
2021/06/23 06:11:09;;;;;;;13.48;6.07;;;25.40;79.20;;;;;;4735516;30;20497;-75
2021/06/23 06:13:35;;;;;;;14.48;6.82;;;25.30;79.70;;;;;;4741168;30;20102;-75
2021/06/23 06:16:00;;;;;;;11.02;5.75;;;25.40;79.40;;;;;;4734450;30;20340;-75
2021/06/23 06:18:27;;;;;;;10.95;6.72;;;25.50;79.40;;;;;;4727666;30;20153;-75
2021/06/23 06:20:53;;;;;;;14.67;7.53;;;25.40;79.70;;;;;;4739082;30;20020;-74
2021/06/23 06:23:19;;;;;;;;;;;25.50;79.30;;;;;;4737017;30;20041;-74
2021/06/23 06:25:46;;;;;;;11.32;7.10;;;25.70;78.70;;;;;;4738137;30;19910;-75
2021/06/23 06:28:11;;;;;;;9.65;6.25;;;25.70;78.70;;;;;;4740105;30;20087;-75
2021/06/23 06:30:37;;;;;;;16.25;8.70;;;25.90;78.90;;;;;;4736624;30;20286;-74
2021/06/23 06:33:03;;;;;;;13.60;7.50;;;26.10;77.50;;;;;;4721447;30;20329;-75
2021/06/23 06:35:29;;;;;;;15.23;7.20;;;26.30;76.80;;;;;;4720061;30;20044;-72
2021/06/23 06:37:56;;;;;;;13.02;7.38;;;26.30;77.80;;;;;;4718841;30;20280;-75
2021/06/23 06:40:22;;;;;;;;;;;26.50;77.10;;;;;;4723256;30;20372;-75
2021/06/23 06:42:48;;;;;;;13.68;7.75;;;26.70;75.70;;;;;;4721232;30;19911;-74
2021/06/23 06:45:14;;;;;;;13.55;7.38;;;26.80;75.50;;;;;;4734366;30;20021;-72
2021/06/23 06:47:40;;;;;;;10.57;6.70;;;26.90;74.90;;;;;;4719238;30;20095;-72
2021/06/23 06:50:06;;;;;;;10.57;7.80;;;27.00;74.30;;;;;;4714667;30;20036;-72
2021/06/23 06:52:32;;;;;;;10.80;7.03;;;27.00;74.10;;;;;;4724836;30;20391;-73
2021/06/23 06:54:58;;;;;;;16.38;7.97;;;27.00;73.50;;;;;;4710535;30;20029;-72
2021/06/23 06:57:24;;;;;;;18.35;9.80;;;26.80;74.80;;;;;;4722797;30;20047;-73
2021/06/23 06:59:50;;;;;;;13.10;7.57;;;26.90;75.10;;;;;;4717082;30;20091;-73
2021/06/23 07:02:15;;;;;;;8.77;6.90;;;27.30;73.60;;;;;;4719058;30;20029;-73
2021/06/23 07:04:41;;;;;;;8.68;5.57;;;27.60;72.80;;;;;;4716996;30;20220;-73
2021/06/23 07:07:07;;;;;;;11.20;6.43;;;27.80;72.10;;;;;;4723968;30;20079;-75
2021/06/23 07:09:33;;;;;;;11.53;6.17;;;27.70;71.60;;;;;;4721742;30;20039;-75
2021/06/23 07:11:59;;;;;;;11.80;6.38;;;27.50;71.70;;;;;;4717120;30;20100;-75
2021/06/23 07:14:25;;;;;;;9.07;6.05;;;27.40;72.40;;;;;;4728824;30;20033;-75
2021/06/23 07:16:50;;;;;;;11.13;5.93;;;27.50;72.10;;;;;;4716334;30;20114;-73
2021/06/23 07:19:16;;;;;;;8.73;6.50;;;27.50;72.40;;;;;;4734278;30;20020;-73
2021/06/23 07:21:42;;;;;;;12.30;6.15;;;27.50;72.60;;;;;;4732143;30;20206;-73
2021/06/23 07:24:08;;;;;;;7.80;5.68;;;27.60;72.40;;;;;;4732586;30;20032;-74
2021/06/23 07:26:35;;;;;;;12.60;6.00;;;27.60;71.70;;;;;;4722773;30;20041;-74
2021/06/23 07:29:04;;;;;;;7.75;5.55;;;27.70;71.00;;;;;;4721048;30;20081;-74
2021/06/23 07:36:47;;;;;;;8.35;6.20;;;27.80;70.20;;;;;;4734207;30;20277;-74
2021/06/23 07:39:16;;;;;;;14.10;6.45;;;27.80;70.00;;;;;;4723713;30;20096;-73
2021/06/23 07:41:45;;;;;;;8.38;5.80;;;27.80;69.50;;;;;;4725083;30;20041;-73
2021/06/23 07:44:13;;;;;;;11.63;7.13;;;27.80;70.90;;;;;;4728557;30;20034;-73
2021/06/23 07:47:00;;;;;;;17.52;7.53;;;27.60;70.10;;;;;;4707867;30;20061;-74
2021/06/23 07:49:29;;;;;;;9.18;6.00;;;27.60;70.70;;;;;;4730928;30;20091;-74
2021/06/23 08:10:25;;;;;;;9.35;5.63;;;29.20;65.00;;;;;;4708745;30;20044;-77
2021/06/23 08:12:54;;;;;;;10.40;5.33;;;29.40;65.90;;;;;;4717550;30;20351;-76
2021/06/23 08:15:23;;;;;;;10.05;5.40;;;29.30;64.00;;;;;;4719664;30;20611;-76
2021/06/23 08:17:49;;;;;;;10.73;4.53;;;29.20;64.00;;;;;;4720614;30;20056;-76
2021/06/23 08:20:15;;;;;;;15.93;5.27;;;29.30;64.20;;;;;;4715730;30;20380;-79
2021/06/23 08:22:40;;;;;;;13.37;6.57;;;29.60;63.20;;;;;;4715159;30;20021;-75
2021/06/23 08:25:07;;;;;;;11.13;5.70;;;29.60;61.50;;;;;;4722377;30;20100;-76
2021/06/23 08:27:32;;;;;;;12.23;5.57;;;29.30;62.10;;;;;;4732901;30;20030;-76
2021/06/23 08:29:59;;;;;;;11.23;5.20;;;29.10;63.20;;;;;;4723583;30;20032;-76
2021/06/23 08:32:25;;;;;;;7.40;5.28;;;29.10;63.80;;;;;;4728263;30;20045;-76
2021/06/23 08:34:50;;;;;;;6.33;5.00;;;29.20;62.60;;;;;;4742793;30;20220;-76
2021/06/23 08:37:16;;;;;;;13.43;5.87;;;29.20;64.40;;;;;;4729193;30;20033;-76
2021/06/23 08:39:42;;;;;;;10.33;6.40;;;29.20;63.50;;;;;;4725665;30;20033;-75
2021/06/23 08:42:09;;;;;;;13.20;7.07;;;29.20;63.30;;;;;;4718254;30;20092;-75
2021/06/23 08:44:35;;;;;;;12.88;6.72;;;29.20;63.90;;;;;;4721772;30;20030;-76
2021/06/23 08:47:02;;;;;;;13.60;8.43;;;29.30;63.90;;;;;;4721920;30;20270;-76
2021/06/23 08:49:29;;;;;;;12.07;7.07;;;29.30;63.50;;;;;;4721525;30;20078;-76
2021/06/23 08:51:56;;;;;;;12.48;8.00;;;29.20;64.10;;;;;;4730095;30;20108;-76
2021/06/23 08:54:23;;;;;;;16.90;9.48;;;29.20;64.90;;;;;;4719786;30;20033;-76
2021/06/23 08:56:50;;;;;;;16.02;9.15;;;29.10;64.50;;;;;;4727956;30;20268;-76
2021/06/23 08:59:15;;;;;;;14.48;8.30;;;28.80;64.90;;;;;;4725609;30;20202;-76
2021/06/23 09:01:45;;;;;;;12.77;8.20;;;28.90;66.20;;;;;;4720811;30;20108;-77
2021/06/23 09:04:15;;;;;;;15.55;8.50;;;29.00;66.20;;;;;;4723572;30;20028;-76
2021/06/23 09:07:00;;;;;;;10.80;7.40;;;29.20;65.80;;;;;;4719496;30;20060;-76
2021/06/23 09:09:30;;;;;;;14.02;8.65;;;29.30;64.50;;;;;;4719326;30;20103;-76
2021/06/23 09:12:04;;;;;;;18.25;8.50;;;29.20;65.10;;;;;;4718763;30;20143;-76
2021/06/23 09:14:32;;;;;;;13.40;7.85;;;29.20;65.20;;;;;;4723744;30;20035;-78
2021/06/23 09:17:11;;;;;;;12.95;9.00;;;29.20;64.30;;;;;;4730725;30;20072;-78
2021/06/23 09:19:40;;;;;;;19.02;8.13;;;29.30;64.40;;;;;;4723786;30;20033;-79
2021/06/23 09:22:42;;;;;;;13.73;9.10;;;29.20;64.80;;;;;;4721773;30;20126;-78
2021/06/23 09:25:11;;;;;;;12.50;9.85;;;29.20;64.30;;;;;;4729415;30;20025;-78
2021/06/23 09:27:45;;;;;;;12.77;8.27;;;28.80;64.40;;;;;;4730413;30;20037;-78
2021/06/23 09:30:31;;;;;;;14.63;10.38;;;28.60;66.30;;;;;;4721740;30;20036;-78
2021/06/23 09:33:18;;;;;;;14.68;9.85;;;28.80;65.70;;;;;;4716622;30;20528;-77
2021/06/23 09:35:57;;;;;;;19.52;10.65;;;28.70;66.30;;;;;;4724487;30;20053;-77
2021/06/23 09:38:32;;;;;;;19.50;9.23;;;28.90;67.60;;;;;;4720546;30;20391;-77
2021/06/23 09:40:59;;;;;;;21.48;10.07;;;29.30;65.80;;;;;;4740879;30;20077;-77
2021/06/23 09:43:41;;;;;;;19.63;10.05;;;29.50;64.80;;;;;;4702787;30;20263;-75
2021/06/23 09:46:32;;;;;;;17.05;10.40;;;29.50;64.30;;;;;;4726517;30;20061;-77
2021/06/23 09:49:08;;;;;;;19.50;10.05;;;29.50;63.10;;;;;;4719655;30;20055;-76
2021/06/23 09:51:42;;;;;;;14.93;9.23;;;29.20;64.30;;;;;;4717721;30;20060;-76
2021/06/23 09:54:09;;;;;;;14.63;9.63;;;29.20;65.30;;;;;;4715127;30;20032;-76
2021/06/23 09:56:39;;;;;;;12.98;9.98;;;29.30;65.00;;;;;;4715773;30;20341;-76
2021/06/23 09:59:07;;;;;;;17.75;10.38;;;29.30;64.60;;;;;;4721283;30;20040;-75
2021/06/23 10:01:42;;;;;;;12.73;9.80;;;29.40;64.30;;;;;;4721514;30;20406;-77
2021/06/23 10:04:09;;;;;;;15.63;9.80;;;29.50;63.50;;;;;;4717449;30;20051;-76
2021/06/23 10:06:37;;;;;;;15.88;10.10;;;29.50;62.40;;;;;;4720664;30;20045;-76
2021/06/23 10:09:25;;;;;;;16.88;9.80;;;29.50;63.90;;;;;;4719877;30;20534;-77
2021/06/23 10:12:02;;;;;;;15.07;10.10;;;29.70;63.10;;;;;;4719887;30;20100;-77
2021/06/23 10:14:30;;;;;;;19.80;10.55;;;30.00;62.10;;;;;;4721275;30;20075;-75
2021/06/23 10:17:02;;;;;;;11.27;9.05;;;30.20;61.00;;;;;;4715271;30;20060;-75
2021/06/23 10:19:30;;;;;;;14.98;9.80;;;30.30;60.70;;;;;;4716674;30;20087;-76
2021/06/23 10:21:58;;;;;;;12.43;9.95;;;30.50;61.70;;;;;;4717817;30;20104;-76
2021/06/23 10:24:27;;;;;;;15.23;10.18;;;30.50;60.70;;;;;;4729780;30;20121;-76
2021/06/23 10:26:53;;;;;;;17.15;10.07;;;30.50;60.70;;;;;;4711571;30;20041;-76
2021/06/23 10:29:30;;;;;;;11.75;8.80;;;30.70;60.20;;;;;;4738023;30;20028;-76
2021/06/23 10:31:56;;;;;;;11.30;8.75;;;30.80;58.70;;;;;;4724644;30;20103;-75
2021/06/23 10:34:23;;;;;;;17.58;8.93;;;30.90;59.50;;;;;;4730944;30;20048;-76
2021/06/23 10:36:50;;;;;;;12.77;8.18;;;31.00;60.10;;;;;;4714799;30;20044;-76
2021/06/23 10:39:19;;;;;;;14.23;8.88;;;30.90;59.10;;;;;;4722709;30;20056;-76
2021/06/23 10:41:48;;;;;;;17.38;9.10;;;30.70;59.80;;;;;;4729577;30;20091;-76
2021/06/23 10:44:19;;;;;;;17.40;8.70;;;30.80;61.30;;;;;;4724464;30;20071;-75
2021/06/23 10:46:47;;;;;;;16.35;8.27;;;30.80;59.20;;;;;;4710007;30;20088;-76
2021/06/23 10:49:16;;;;;;;16.42;8.00;;;30.60;59.80;;;;;;4736299;30;20025;-75
2021/06/23 10:51:43;;;;;;;20.00;8.63;;;30.80;60.10;;;;;;4734968;30;20042;-76
2021/06/23 10:54:27;;;;;;;11.38;8.65;;;31.00;58.40;;;;;;4720781;30;20087;-75
2021/06/23 10:56:53;;;;;;;10.38;8.02;;;30.60;59.10;;;;;;4737584;30;20067;-76
2021/06/23 10:59:36;;;;;;;13.73;8.40;;;30.60;58.70;;;;;;4731030;30;20029;-76
2021/06/23 11:02:09;;;;;;;12.45;7.93;;;30.60;59.10;;;;;;4727551;30;20052;-76
2021/06/23 11:04:57;;;;;;;13.85;8.13;;;30.50;59.70;;;;;;4717572;30;20041;-76
2021/06/23 11:07:44;;;;;;;20.98;8.57;;;30.70;61.00;;;;;;4721408;30;20124;-76
2021/06/23 11:10:13;;;;;;;13.18;8.32;;;30.70;59.70;;;;;;4712682;30;20032;-76
2021/06/23 11:12:50;;;;;;;16.15;8.93;;;30.50;59.40;;;;;;4721199;30;20033;-76
2021/06/23 11:15:32;;;;;;;14.10;8.32;;;30.50;58.70;;;;;;4722323;30;20033;-76
2021/06/23 11:18:16;;;;;;;9.10;7.20;;;30.40;60.30;;;;;;4713765;30;20060;-76
2021/06/23 11:20:54;;;;;;;14.82;7.32;;;30.40;61.40;;;;;;4733057;30;20029;-76
2021/06/23 11:23:40;;;;;;;16.98;8.38;;;30.60;61.50;;;;;;4710419;30;20038;-76
2021/06/23 11:26:07;;;;;;;18.40;7.40;;;30.80;59.50;;;;;;4720673;30;20040;-76
2021/06/23 11:28:33;;;;;;;11.38;7.78;;;30.80;59.60;;;;;;4708748;30;20040;-76
2021/06/23 11:31:04;;;;;;;13.48;7.43;;;30.90;58.60;;;;;;4725298;30;20033;-76
2021/06/23 11:33:30;;;;;;;14.90;8.43;;;30.90;60.50;;;;;;4717055;30;20034;-76
2021/06/23 11:36:07;;;;;;;14.23;8.43;;;30.90;59.10;;;;;;4738815;30;20317;-76
2021/06/23 11:38:35;;;;;;;21.20;7.93;;;30.70;59.10;;;;;;4716992;30;20126;-76
2021/06/23 11:41:02;;;;;;;16.77;7.80;;;30.40;60.60;;;;;;4735242;30;20017;-76
2021/06/23 11:43:28;;;;;;;12.35;7.78;;;30.50;61.40;;;;;;4731667;30;20033;-76
2021/06/23 11:45:54;;;;;;;9.07;7.30;;;30.70;61.10;;;;;;4718935;30;20099;-76
2021/06/23 11:48:20;;;;;;;17.08;8.95;;;30.90;59.50;;;;;;4715716;30;20045;-76
2021/06/23 11:50:47;;;;;;;13.30;7.13;;;30.80;59.10;;;;;;4728919;30;20070;-75
2021/06/23 11:53:14;;;;;;;;;;;30.80;59.80;;;;;;4725170;30;20249;-76
2021/06/23 11:55:41;;;;;;;18.73;7.68;;;31.10;59.20;;;;;;4721597;30;19911;-77
2021/06/23 11:58:07;;;;;;;14.40;7.80;;;31.20;59.80;;;;;;4733605;30;20305;-76
2021/06/23 12:00:35;;;;;;;10.87;7.40;;;31.10;58.20;;;;;;4719192;30;20037;-75
2021/06/23 12:03:01;;;;;;;14.57;7.25;;;31.00;57.50;;;;;;4725669;30;20025;-77
2021/06/23 12:05:29;;;;;;;9.80;6.72;;;31.10;60.00;;;;;;4729345;30;20038;-77
2021/06/23 12:07:55;;;;;;;12.75;6.63;;;31.30;58.50;;;;;;4734207;30;20037;-76
2021/06/23 12:10:23;;;;;;;21.55;7.18;;;31.30;56.90;;;;;;4713395;30;20029;-76
2021/06/23 12:12:49;;;;;;;16.35;7.97;;;31.30;58.00;;;;;;4709817;30;20045;-76
2021/06/23 12:15:20;;;;;;;12.80;8.13;;;31.20;57.30;;;;;;4721150;30;20030;-76
2021/06/23 12:17:48;;;;;;;11.35;7.78;;;31.20;58.40;;;;;;4734665;30;20060;-76
2021/06/23 12:20:14;;;;;;;7.88;6.68;;;31.30;59.90;;;;;;4722300;30;20224;-77
2021/06/23 12:22:40;;;;;;;13.93;7.35;;;31.30;58.50;;;;;;4716517;30;20029;-76
2021/06/23 12:25:12;;;;;;;10.83;7.20;;;31.40;57.80;;;;;;4731707;30;20037;-76
2021/06/23 12:27:38;;;;;;;9.35;7.00;;;31.50;57.90;;;;;;4710841;30;20324;-76
2021/06/23 12:30:06;;;;;;;17.08;7.60;;;31.60;56.00;;;;;;4731906;30;20060;-76
2021/06/23 12:32:32;;;;;;;15.43;7.68;;;31.50;57.60;;;;;;4730418;30;20260;-76
2021/06/23 12:35:00;;;;;;;18.80;8.98;;;31.50;57.30;;;;;;4725933;30;20063;-76
2021/06/23 12:37:26;;;;;;;15.23;8.43;;;31.60;57.00;;;;;;4716478;30;20193;-76
2021/06/23 12:39:52;;;;;;;12.20;7.97;;;31.60;56.10;;;;;;4713270;30;20112;-77
2021/06/23 12:42:18;;;;;;;13.57;6.90;;;31.50;56.70;;;;;;4712913;30;20025;-76
2021/06/23 12:44:45;;;;;;;10.88;7.78;;;31.50;59.10;;;;;;4719321;30;20069;-76
2021/06/23 12:47:11;;;;;;;;;;;31.80;58.20;;;;;;4724615;30;20356;-75
2021/06/23 12:49:37;;;;;;;8.25;6.80;;;32.00;57.20;;;;;;4721038;30;19923;-76
2021/06/23 12:52:03;;;;;;;17.97;7.77;;;32.00;57.50;;;;;;4722988;30;20040;-76
2021/06/23 12:54:29;;;;;;;16.15;7.93;;;32.20;58.50;;;;;;4712375;30;20061;-77
2021/06/23 12:56:55;;;;;;;14.50;8.23;;;32.40;58.30;;;;;;4734257;30;20352;-77
2021/06/23 12:59:21;;;;;;;16.35;7.28;;;32.40;57.40;;;;;;4715126;30;20032;-77
2021/06/23 13:01:47;;;;;;;16.77;7.90;;;32.40;57.50;;;;;;4715740;30;20153;-77
2021/06/23 13:04:12;;;;;;;15.98;7.47;;;32.40;56.40;;;;;;4713517;30;20108;-77
2021/06/23 13:06:39;;;;;;;21.33;8.23;;;32.30;56.00;;;;;;4720496;30;20037;-77
2021/06/23 13:09:06;;;;;;;;;;;32.30;56.00;;;;;;4714358;30;20037;-77
2021/06/23 13:11:32;;;;;;;14.98;7.05;;;32.40;55.80;;;;;;4724082;30;19982;-77
2021/06/23 13:13:58;;;;;;;14.82;8.07;;;32.50;56.30;;;;;;4717633;30;20059;-77
2021/06/23 13:16:24;;;;;;;12.93;7.97;;;32.40;55.20;;;;;;4712562;30;20217;-77
2021/06/23 13:18:51;;;;;;;;;;;32.30;56.00;;;;;;4723706;30;20049;-76
2021/06/23 13:21:17;;;;;;;9.00;6.72;;;32.30;55.90;;;;;;4730805;30;20091;-77
2021/06/23 13:23:43;;;;;;;12.53;7.03;;;32.20;57.00;;;;;;4727934;30;20093;-77
2021/06/23 13:26:09;;;;;;;16.90;8.80;;;32.40;55.90;;;;;;4722588;30;20040;-77
2021/06/23 13:28:35;;;;;;;11.77;7.93;;;32.30;56.20;;;;;;4712347;30;20025;-77
2021/06/23 13:31:01;;;;;;;;;;;32.40;56.50;;;;;;4711094;30;20096;-77
2021/06/23 13:33:27;;;;;;;14.98;8.30;;;32.60;55.60;;;;;;4717529;30;19915;-76
2021/06/23 13:35:53;;;;;;;20.10;7.80;;;32.70;56.80;;;;;;4731041;30;20049;-77
2021/06/23 13:38:23;;;;;;;18.27;8.93;;;32.70;54.60;;;;;;4716168;30;20030;-77
2021/06/23 13:40:48;;;;;;;15.82;7.53;;;32.60;55.10;;;;;;4723028;30;20026;-78
2021/06/23 13:43:14;;;;;;;10.40;6.97;;;32.60;55.90;;;;;;4718725;30;20025;-76
2021/06/23 13:45:40;;;;;;;17.33;8.57;;;32.70;56.80;;;;;;4715636;30;20416;-77
2021/06/23 13:48:06;;;;;;;12.77;7.90;;;32.90;55.60;;;;;;4724773;30;20044;-76
2021/06/23 13:50:32;;;;;;;11.85;7.32;;;33.00;55.70;;;;;;4720912;30;20056;-77
2021/06/23 13:52:59;;;;;;;13.33;8.03;;;33.00;55.10;;;;;;4717622;30;20088;-77
2021/06/23 13:55:26;;;;;;;13.38;7.80;;;32.80;53.90;;;;;;4721355;30;20201;-77
2021/06/23 13:57:55;;;;;;;26.27;14.00;;;32.60;54.60;;;;;;4732052;30;20533;-76
2021/06/23 14:00:21;;;;;;;20.83;11.02;;;32.70;55.80;;;;;;4733955;30;20112;-77
2021/06/23 14:02:49;;;;;;;18.65;7.25;;;32.90;54.50;;;;;;4713973;30;20057;-77
2021/06/23 14:05:15;;;;;;;11.30;6.87;;;33.00;55.00;;;;;;4708237;30;20057;-77
2021/06/23 14:07:42;;;;;;;;;;;33.00;54.10;;;;;;4699835;30;20350;-77
2021/06/23 14:10:08;;;;;;;;;;;32.90;54.10;;;;;;4707071;30;19911;-76
2021/06/23 14:12:34;;;;;;;11.07;7.00;;;32.90;55.00;;;;;;4702640;30;19978;-77
2021/06/23 14:14:59;;;;;;;9.77;7.23;;;32.80;55.40;;;;;;4698091;30;20045;-77
2021/06/23 14:17:25;;;;;;;11.70;6.93;;;32.90;53.70;;;;;;4705328;30;20304;-76
2021/06/23 14:19:51;;;;;;;14.40;7.30;;;32.90;55.40;;;;;;4710071;30;20108;-77
2021/06/23 14:22:18;;;;;;;15.87;8.00;;;33.00;54.70;;;;;;4699063;30;20037;-77
2021/06/23 14:24:44;;;;;;;13.98;7.10;;;33.10;54.60;;;;;;4716645;30;20041;-76
2021/06/23 14:27:10;;;;;;;7.78;6.07;;;33.10;55.50;;;;;;4703340;30;20186;-77
2021/06/23 14:29:36;;;;;;;14.38;6.97;;;33.10;54.20;;;;;;4704226;30;20290;-76
2021/06/23 14:32:02;;;;;;;14.60;7.57;;;33.00;53.50;;;;;;4720126;30;20034;-77
2021/06/23 14:34:28;;;;;;;16.42;7.00;;;32.90;54.60;;;;;;4701457;30;20037;-76
2021/06/23 14:36:54;;;;;;;14.43;7.70;;;32.80;55.30;;;;;;4703978;30;20167;-76
2021/06/23 14:39:19;;;;;;;14.10;7.63;;;32.90;54.10;;;;;;4712480;30;20080;-77
2021/06/23 14:41:45;;;;;;;13.30;7.60;;;32.90;54.20;;;;;;4703781;30;20026;-77
2021/06/23 14:44:11;;;;;;;10.33;6.23;;;32.90;54.30;;;;;;4719230;30;20056;-76
2021/06/23 14:46:37;;;;;;;11.87;7.23;;;33.00;54.20;;;;;;4703989;30;20238;-76
2021/06/23 14:49:04;;;;;;;;;;;33.10;52.60;;;;;;4699122;30;20066;-76
2021/06/23 14:51:30;;;;;;;;;;;33.10;53.40;;;;;;4712911;30;20199;-77
2021/06/23 14:53:55;;;;;;;19.40;7.20;;;33.10;54.10;;;;;;4701504;30;19911;-76
2021/06/23 14:56:21;;;;;;;18.73;8.57;;;33.10;53.70;;;;;;4709720;30;20033;-76
2021/06/23 14:58:47;;;;;;;15.30;7.30;;;33.00;52.80;;;;;;4703939;30;20105;-76
2021/06/23 15:01:13;;;;;;;22.90;7.38;;;32.90;53.30;;;;;;4705117;30;20104;-77
2021/06/23 15:03:39;;;;;;;21.83;7.77;;;32.80;53.70;;;;;;4708125;30;20034;-77
2021/06/23 15:06:07;;;;;;;14.27;7.10;;;32.90;54.40;;;;;;4694697;30;20037;-76
2021/06/23 15:08:36;;;;;;;15.07;7.05;;;32.70;54.30;;;;;;4696591;30;20036;-77
2021/06/23 15:11:03;;;;;;;8.70;6.43;;;32.70;54.30;;;;;;4707779;30;20021;-77
2021/06/23 15:13:28;;;;;;;22.30;7.75;;;32.60;55.70;;;;;;4706938;30;20041;-76
2021/06/23 15:15:54;;;;;;;13.70;6.60;;;32.70;54.70;;;;;;4696405;30;20045;-76
2021/06/23 15:18:20;;;;;;;15.13;6.53;;;32.80;53.80;;;;;;4719489;30;20033;-77
2021/06/23 15:20:46;;;;;;;15.50;8.43;;;32.90;53.80;;;;;;4710372;30;20057;-76
2021/06/23 15:23:12;;;;;;;16.77;7.53;;;32.80;53.30;;;;;;4725344;30;20045;-76
2021/06/23 15:25:38;;;;;;;17.10;6.72;;;32.90;54.60;;;;;;4725121;30;20073;-77
2021/06/23 15:28:04;;;;;;;17.23;8.07;;;32.90;53.60;;;;;;4704001;30;20409;-77
2021/06/23 15:30:31;;;;;;;22.88;8.00;;;33.00;54.50;;;;;;4688326;30;20037;-78
2021/06/23 15:32:57;;;;;;;11.63;7.25;;;33.00;53.40;;;;;;4695402;30;20033;-76
2021/06/23 15:35:23;;;;;;;17.65;8.43;;;32.90;53.90;;;;;;4724445;30;20041;-77
2021/06/23 15:37:51;;;;;;;16.70;9.07;;;32.70;53.70;;;;;;4701176;30;20050;-77
2021/06/23 15:40:18;;;;;;;15.30;7.32;;;32.60;55.30;;;;;;4708937;30;20041;-77
2021/06/23 15:42:44;;;;;;;16.48;8.32;;;32.50;55.10;;;;;;4704136;30;20037;-77
2021/06/23 15:45:14;;;;;;;18.60;8.23;;;32.60;56.00;;;;;;4697881;30;20041;-76
2021/06/23 15:47:41;;;;;;;15.85;8.05;;;32.60;55.00;;;;;;4711179;30;20287;-77
2021/06/23 15:50:07;;;;;;;;;;;32.50;55.30;;;;;;4704068;30;20105;-77
2021/06/23 15:52:33;;;;;;;12.45;7.72;;;32.30;54.80;;;;;;4703618;30;19934;-76
2021/06/23 15:54:59;;;;;;;14.10;8.50;;;32.10;55.60;;;;;;4682056;30;20344;-76
2021/06/23 15:57:26;;;;;;;13.37;8.30;;;32.00;56.80;;;;;;4702721;30;20080;-77